Time;durP1;ratioP1;P1;durP2;ratioP2;P2;SDS_P1;SDS_P2;PMS_P1;PMS_P2;Temp;Humidity;BMP_temperature;BMP_pressure;BME280_temperature;BME280_humidity;BME280_pressure;Samples;Min_cycle;Max_cycle;Signal;HPM_P1;HPM_P2
2022/06/25 00:01:19;;;;;;;11.48;7.43;;;21.60;99.90;;;;;;5074485;28;20037;-76
2022/06/25 00:03:46;;;;;;;12.50;7.63;;;21.60;99.90;;;;;;5075088;28;20021;-76
2022/06/25 00:06:12;;;;;;;12.48;8.13;;;21.50;99.90;;;;;;5074552;28;20021;-76
2022/06/25 00:08:39;;;;;;;13.05;7.68;;;21.30;99.90;;;;;;5075155;28;20373;-76
2022/06/25 00:11:06;;;;;;;15.65;7.38;;;21.30;99.90;;;;;;5074829;28;20032;-77
2022/06/25 00:13:32;;;;;;;13.25;8.05;;;21.20;99.90;;;;;;5075026;28;20108;-75
2022/06/25 00:15:59;;;;;;;13.00;8.48;;;21.20;99.90;;;;;;5074874;28;20035;-75
2022/06/25 00:18:25;;;;;;;10.65;7.53;;;21.20;99.90;;;;;;5074337;28;20036;-74
2022/06/25 00:20:51;;;;;;;11.32;7.03;;;21.20;99.90;;;;;;5074679;28;20474;-76
2022/06/25 00:23:17;;;;;;;12.90;8.18;;;21.20;99.90;;;;;;5074457;28;20447;-74
2022/06/25 00:25:43;;;;;;;15.70;7.85;;;21.30;99.90;;;;;;5074425;28;20056;-76
2022/06/25 00:28:09;;;;;;;10.38;7.38;;;21.30;99.90;;;;;;5074497;28;20044;-76
2022/06/25 00:30:37;;;;;;;16.50;7.63;;;21.30;99.90;;;;;;5056492;28;20436;-74
2022/06/25 00:33:03;;;;;;;13.70;8.00;;;21.30;99.90;;;;;;5074446;28;20012;-73
2022/06/25 00:35:29;;;;;;;10.60;6.82;;;21.30;99.90;;;;;;5074782;28;20359;-69
2022/06/25 00:37:55;;;;;;;12.75;8.52;;;21.30;99.90;;;;;;5058360;28;20085;-76
2022/06/25 00:40:21;;;;;;;15.40;9.13;;;21.10;99.90;;;;;;5074243;28;20549;-76
2022/06/25 00:42:50;;;;;;;12.45;7.57;;;21.00;99.90;;;;;;5074308;28;20481;-76
2022/06/25 00:45:16;;;;;;;14.20;8.98;;;21.00;99.90;;;;;;5058584;28;20043;-73
2022/06/25 00:47:42;;;;;;;12.93;8.85;;;21.00;99.90;;;;;;5073451;28;20322;-76
2022/06/25 00:50:09;;;;;;;25.23;9.15;;;20.90;99.90;;;;;;5072596;28;20045;-73
2022/06/25 00:52:38;;;;;;;10.93;7.80;;;21.00;99.90;;;;;;5072262;28;20453;-76
2022/06/25 00:55:10;;;;;;;14.32;8.60;;;20.90;99.90;;;;;;5064413;28;20029;-76
2022/06/25 00:57:39;;;;;;;13.05;8.18;;;20.80;99.90;;;;;;5072254;28;20466;-77
2022/06/25 01:00:09;;;;;;;11.35;8.68;;;20.70;99.90;;;;;;5073631;28;20028;-76
2022/06/25 01:02:36;;;;;;;13.25;9.07;;;20.80;99.90;;;;;;5055377;28;20021;-76
2022/06/25 01:05:09;;;;;;;12.40;8.52;;;20.80;99.90;;;;;;5055492;28;20559;-75
2022/06/25 01:07:36;;;;;;;18.50;8.80;;;20.60;99.90;;;;;;5054959;28;20131;-77
2022/06/25 01:10:03;;;;;;;12.85;8.57;;;20.60;99.90;;;;;;5055066;28;20032;-77
2022/06/25 01:12:29;;;;;;;14.88;9.40;;;20.60;99.90;;;;;;5053816;28;20033;-75
2022/06/25 01:15:18;;;;;;;15.63;8.20;;;20.50;99.90;;;;;;5054844;28;20022;-76
2022/06/25 01:17:47;;;;;;;14.32;8.77;;;20.50;99.90;;;;;;5056781;28;20028;-71
2022/06/25 01:20:15;;;;;;;14.68;8.75;;;20.60;99.90;;;;;;5065862;28;20102;-76
2022/06/25 01:22:41;;;;;;;15.30;8.00;;;20.50;99.90;;;;;;5069600;28;20028;-76
2022/06/25 01:25:09;;;;;;;13.68;8.52;;;20.60;99.90;;;;;;5058226;28;20024;-73
2022/06/25 01:27:36;;;;;;;13.10;9.48;;;20.60;99.90;;;;;;5082959;28;20055;-77
2022/06/25 01:30:03;;;;;;;12.10;8.48;;;20.60;99.90;;;;;;5072784;28;20070;-77
2022/06/25 01:32:30;;;;;;;13.65;8.75;;;20.60;99.90;;;;;;5052983;28;20386;-75
2022/06/25 01:34:55;;;;;;;14.18;8.82;;;20.60;99.90;;;;;;5037035;28;20044;-77
2022/06/25 01:37:21;;;;;;;13.48;8.05;;;20.50;99.90;;;;;;5073009;28;20032;-77
2022/06/25 01:39:54;;;;;;;14.05;9.23;;;20.30;99.90;;;;;;5056019;28;20044;-77
2022/06/25 01:45:09;;;;;;;14.45;8.23;;;20.30;99.90;;;;;;5053469;28;20024;-77
2022/06/25 01:47:35;;;;;;;11.90;8.25;;;20.30;99.90;;;;;;5072412;28;20086;-77
2022/06/25 01:50:02;;;;;;;11.13;8.10;;;20.20;99.90;;;;;;5031658;28;1163927;-77
2022/06/25 01:52:28;;;;;;;13.07;8.18;;;20.20;99.90;;;;;;5069898;28;20029;-74
2022/06/25 01:54:54;;;;;;;12.80;8.02;;;20.20;99.90;;;;;;5051532;28;20052;-77
2022/06/25 01:57:20;;;;;;;14.15;8.77;;;20.30;99.90;;;;;;5070286;28;20032;-73
2022/06/25 01:59:47;;;;;;;17.13;8.77;;;20.30;99.90;;;;;;5066106;28;20040;-74
2022/06/25 02:02:14;;;;;;;15.93;8.13;;;20.30;99.90;;;;;;5049478;28;20501;-76
2022/06/25 02:04:41;;;;;;;18.90;8.85;;;20.40;99.90;;;;;;5054856;28;20390;-77
2022/06/25 02:07:07;;;;;;;11.32;7.95;;;20.50;99.90;;;;;;5054957;28;20378;-77
2022/06/25 02:09:35;;;;;;;13.15;8.10;;;20.40;99.90;;;;;;5073074;28;20035;-77
2022/06/25 02:12:01;;;;;;;13.40;7.90;;;20.50;99.90;;;;;;5055483;28;20107;-76
2022/06/25 02:14:27;;;;;;;12.82;8.30;;;20.50;99.90;;;;;;5054620;28;20027;-77
2022/06/25 02:16:53;;;;;;;13.60;8.38;;;20.60;99.90;;;;;;5071852;28;20029;-77
2022/06/25 02:19:19;;;;;;;12.88;8.45;;;20.50;99.90;;;;;;5057730;28;20445;-70
2022/06/25 02:21:45;;;;;;;14.60;8.27;;;20.60;99.90;;;;;;5053493;28;20032;-77
2022/06/25 02:24:11;;;;;;;10.32;7.82;;;20.60;99.90;;;;;;5054718;28;20045;-76
2022/06/25 02:26:37;;;;;;;12.57;8.15;;;20.60;99.90;;;;;;5053589;28;20064;-77
2022/06/25 02:29:03;;;;;;;11.93;7.70;;;20.70;99.90;;;;;;5054306;28;20032;-78
2022/06/25 02:31:29;;;;;;;14.15;8.93;;;20.70;99.90;;;;;;5072583;28;20482;-76
2022/06/25 02:33:55;;;;;;;15.52;9.70;;;20.50;99.90;;;;;;5054503;28;20035;-77
2022/06/25 02:36:21;;;;;;;11.85;8.43;;;20.60;99.90;;;;;;5053703;28;20028;-76
2022/06/25 02:38:47;;;;;;;14.27;8.52;;;20.70;99.90;;;;;;5054707;28;20557;-76
2022/06/25 02:41:14;;;;;;;12.18;8.57;;;20.60;99.90;;;;;;5054616;28;20032;-77
2022/06/25 02:43:40;;;;;;;14.07;7.90;;;20.70;99.90;;;;;;5072766;28;20508;-72
2022/06/25 02:46:27;;;;;;;12.85;8.27;;;20.70;99.90;;;;;;5054346;28;20039;-77
2022/06/25 02:48:55;;;;;;;12.98;9.10;;;20.70;99.90;;;;;;5053920;28;20052;-76
2022/06/25 02:51:21;;;;;;;13.30;8.68;;;20.80;99.90;;;;;;5072474;28;20053;-72
2022/06/25 02:53:48;;;;;;;15.30;8.93;;;20.90;99.90;;;;;;5054290;28;20039;-77
2022/06/25 02:59:03;;;;;;;14.07;9.35;;;20.90;99.90;;;;;;5053411;28;20478;-64
2022/06/25 03:01:42;;;;;;;16.50;9.57;;;20.90;99.90;;;;;;5048983;28;20041;-77
2022/06/25 03:04:10;;;;;;;15.23;10.45;;;21.00;99.90;;;;;;5062375;28;20094;-75
2022/06/25 03:06:36;;;;;;;14.52;9.98;;;21.00;99.90;;;;;;5071945;28;20021;-71
2022/06/25 03:09:03;;;;;;;13.43;8.85;;;21.10;99.90;;;;;;5053398;28;20108;-76
2022/06/25 03:11:29;;;;;;;13.43;8.95;;;21.10;99.90;;;;;;5053701;28;20082;-77
2022/06/25 03:13:55;;;;;;;11.65;8.55;;;21.20;99.90;;;;;;5071364;28;20029;-77
2022/06/25 03:16:22;;;;;;;12.70;9.05;;;21.30;99.90;;;;;;5051555;28;20028;-77
2022/06/25 03:18:50;;;;;;;14.55;9.55;;;21.30;99.90;;;;;;5071947;28;20546;-77
2022/06/25 03:21:50;;;;;;;14.13;9.07;;;21.30;99.90;;;;;;5053466;28;20051;-77
2022/06/25 03:24:18;;;;;;;18.15;8.88;;;21.30;99.90;;;;;;5053593;28;20020;-77
2022/06/25 03:26:44;;;;;;;14.32;8.02;;;21.20;99.90;;;;;;5052605;28;20552;-77
2022/06/25 03:29:10;;;;;;;17.60;9.88;;;21.20;99.90;;;;;;5053739;28;20497;-77
2022/06/25 03:31:37;;;;;;;14.80;9.48;;;21.10;99.90;;;;;;5053493;28;20394;-77
2022/06/25 03:34:23;;;;;;;13.38;8.45;;;21.20;99.90;;;;;;5071726;28;20082;-77
2022/06/25 03:36:50;;;;;;;14.13;8.93;;;21.40;99.90;;;;;;5052707;28;20028;-74
2022/06/25 03:39:17;;;;;;;16.38;9.10;;;21.50;99.90;;;;;;5049987;28;20024;-77
2022/06/25 03:41:43;;;;;;;14.70;8.90;;;21.50;99.90;;;;;;5051574;28;20387;-77
2022/06/25 03:44:27;;;;;;;14.75;8.00;;;21.60;99.90;;;;;;5071589;28;20036;-76
2022/06/25 03:47:12;;;;;;;14.25;8.25;;;21.90;99.90;;;;;;5053015;28;20557;-78
2022/06/25 03:49:39;;;;;;;12.90;8.82;;;22.00;99.90;;;;;;5052886;28;20374;-74
2022/06/25 03:52:10;;;;;;;19.02;8.15;;;21.80;99.90;;;;;;5053145;28;20354;-76
2022/06/25 03:54:37;;;;;;;16.13;8.50;;;21.40;99.90;;;;;;5071306;28;20025;-77
2022/06/25 03:57:04;;;;;;;15.20;8.40;;;21.70;99.90;;;;;;5071143;28;20034;-77
2022/06/25 03:59:43;;;;;;;11.63;8.55;;;21.80;99.90;;;;;;5050028;28;20036;-77
2022/06/25 04:02:20;;;;;;;13.02;8.38;;;22.90;99.90;;;;;;5048557;28;20085;-77
2022/06/25 04:05:08;;;;;;;14.30;8.00;;;23.30;99.90;;;;;;5070468;28;20053;-77
2022/06/25 04:07:34;;;;;;;14.88;8.65;;;22.90;99.90;;;;;;5052668;28;20110;-77
2022/06/25 04:10:00;;;;;;;15.70;7.68;;;23.40;99.90;;;;;;5053434;28;20697;-76
2022/06/25 04:12:26;;;;;;;12.32;7.38;;;23.80;99.90;;;;;;5052981;28;20168;-73
2022/06/25 04:14:52;;;;;;;13.73;6.50;;;24.70;99.90;;;;;;5053003;28;20039;-78
2022/06/25 04:17:18;;;;;;;10.07;6.15;;;25.70;99.90;;;;;;5052749;28;20112;-75
2022/06/25 04:19:44;;;;;;;15.52;6.82;;;26.70;99.90;;;;;;5053130;28;20111;-76
2022/06/25 04:22:16;;;;;;;9.45;6.40;;;27.00;99.90;;;;;;5053185;28;20086;-78
2022/06/25 04:24:42;;;;;;;9.13;6.32;;;28.10;99.90;;;;;;5065322;28;20025;-78
2022/06/25 04:29:03;;;;;;;10.43;7.30;;;28.70;99.90;;;;;;5051655;28;20029;-78
2022/06/25 04:29:54;;;;;;;12.95;6.75;;;30.50;92.30;;;;;;5052278;28;20423;-78
2022/06/25 04:32:22;;;;;;;11.75;6.70;;;30.50;92.60;;;;;;5050850;28;20090;-78
2022/06/25 04:35:21;;;;;;;12.15;6.35;;;30.60;90.40;;;;;;5052772;28;20052;-78
2022/06/25 04:37:49;;;;;;;12.57;7.82;;;31.00;91.30;;;;;;5051864;28;20072;-79
2022/06/25 04:40:18;;;;;;;20.92;13.30;;;31.70;87.90;;;;;;5052680;28;20044;-79
2022/06/25 04:42:46;;;;;;;24.65;14.60;;;31.70;88.10;;;;;;5071006;28;20024;-76
2022/06/25 04:45:13;;;;;;;20.75;14.57;;;32.20;85.40;;;;;;5056743;28;20471;-76
2022/06/25 04:47:51;;;;;;;26.23;14.18;;;33.20;97.90;;;;;;5056016;28;20097;-79
2022/06/25 04:50:43;;;;;;;32.47;14.30;;;32.80;83.60;;;;;;5011339;28;20208;-78
2022/06/25 04:53:09;;;;;;;19.30;11.95;;;32.60;84.30;;;;;;5011852;28;20514;-79
2022/06/25 04:55:35;;;;;;;19.05;9.30;;;31.90;84.30;;;;;;4995524;28;20088;-79
2022/06/25 04:58:01;;;;;;;17.75;9.98;;;31.90;84.30;;;;;;4995214;28;20077;-76
2022/06/25 05:00:45;;;;;;;19.95;9.32;;;30.60;88.70;;;;;;5011067;28;20037;-78
2022/06/25 05:03:12;;;;;;;19.55;9.23;;;30.20;92.00;;;;;;5011325;28;20021;-73
2022/06/25 05:05:48;;;;;;;13.05;7.90;;;29.80;93.60;;;;;;4991941;28;20483;-77
2022/06/25 05:08:14;;;;;;;12.00;7.85;;;29.50;96.20;;;;;;4994586;28;20038;-78
2022/06/25 05:10:39;;;;;;;15.32;7.93;;;28.90;96.30;;;;;;5011630;28;20030;-78
2022/06/25 05:13:14;;;;;;;13.95;8.43;;;29.10;97.50;;;;;;4994992;28;20499;-79
2022/06/25 05:15:43;;;;;;;15.95;8.10;;;29.00;95.80;;;;;;4999000;28;20042;-76
2022/06/25 05:18:12;;;;;;;13.90;7.93;;;28.90;97.50;;;;;;4994887;28;20030;-78
2022/06/25 05:20:42;;;;;;;14.77;8.65;;;28.80;98.30;;;;;;4995575;28;20675;-77
2022/06/25 05:23:08;;;;;;;15.80;8.52;;;28.40;99.90;;;;;;5009884;28;20038;-74
2022/06/25 05:25:35;;;;;;;14.10;8.23;;;28.10;99.90;;;;;;5005065;28;20077;-77
2022/06/25 05:28:01;;;;;;;15.25;9.25;;;28.00;99.90;;;;;;5030432;28;20530;-71
2022/06/25 05:30:29;;;;;;;15.57;8.93;;;27.80;99.90;;;;;;5055412;28;20032;-75
2022/06/25 05:32:55;;;;;;;19.52;10.30;;;27.70;99.90;;;;;;5044038;28;20032;-77
2022/06/25 05:35:21;;;;;;;17.00;10.02;;;27.60;99.90;;;;;;5052462;28;20032;-77
2022/06/25 05:37:50;;;;;;;17.27;10.23;;;27.40;99.90;;;;;;5055072;28;20032;-75
2022/06/25 05:40:16;;;;;;;19.98;10.98;;;27.40;99.90;;;;;;5054475;28;20583;-77
2022/06/25 05:42:42;;;;;;;17.95;11.80;;;27.30;99.90;;;;;;5062461;28;20494;-78
2022/06/25 05:45:09;;;;;;;21.23;12.40;;;27.40;99.90;;;;;;5074873;28;20390;-75
2022/06/25 05:47:35;;;;;;;22.30;12.30;;;27.50;99.90;;;;;;5087529;28;20024;-74
2022/06/25 05:50:01;;;;;;;18.75;10.70;;;27.50;99.90;;;;;;5078743;28;20040;-76
2022/06/25 05:52:27;;;;;;;22.88;11.10;;;27.30;99.90;;;;;;5072336;28;20047;-79
2022/06/25 05:54:54;;;;;;;16.40;11.45;;;27.40;99.90;;;;;;5079692;28;20021;-77
2022/06/25 05:57:19;;;;;;;17.58;11.65;;;27.60;99.90;;;;;;5073031;28;20029;-78
2022/06/25 05:59:45;;;;;;;19.80;11.10;;;27.80;99.90;;;;;;5069965;28;20017;-76
2022/06/25 06:02:12;;;;;;;14.98;10.57;;;28.10;99.90;;;;;;5071955;28;20108;-76
2022/06/25 06:04:38;;;;;;;18.65;10.80;;;28.20;99.90;;;;;;5071940;28;20032;-78
2022/06/25 06:07:05;;;;;;;19.20;10.90;;;28.40;99.90;;;;;;5072825;28;20028;-76
2022/06/25 06:09:34;;;;;;;15.20;9.77;;;28.30;99.90;;;;;;5072195;28;20017;-74
2022/06/25 06:12:00;;;;;;;15.02;9.30;;;28.50;99.90;;;;;;5071303;28;20033;-76
2022/06/25 06:14:26;;;;;;;15.75;9.13;;;28.80;99.90;;;;;;5071911;28;20024;-76
2022/06/25 06:16:52;;;;;;;16.33;10.05;;;29.00;99.90;;;;;;5071166;28;20538;-73
2022/06/25 06:19:18;;;;;;;17.75;9.38;;;29.30;99.20;;;;;;5067473;28;20100;-75
2022/06/25 06:21:44;;;;;;;23.45;10.40;;;29.20;99.90;;;;;;5071186;28;20032;-79
2022/06/25 06:24:11;;;;;;;13.35;9.07;;;29.00;99.90;;;;;;5071564;28;20051;-75
2022/06/25 06:26:37;;;;;;;16.60;9.82;;;29.10;99.40;;;;;;5070949;28;20032;-75
2022/06/25 06:29:05;;;;;;;16.50;8.32;;;29.40;99.90;;;;;;5071278;28;20028;-78
2022/06/25 06:31:31;;;;;;;15.05;8.90;;;29.40;98.10;;;;;;5070907;28;20072;-73
2022/06/25 06:33:57;;;;;;;18.05;8.63;;;29.30;98.30;;;;;;5071264;28;20044;-76
2022/06/25 06:36:23;;;;;;;16.60;8.65;;;29.50;96.80;;;;;;5071351;28;20462;-77
2022/06/25 06:38:49;;;;;;;15.50;9.23;;;29.50;97.50;;;;;;5071649;28;20025;-69
2022/06/25 06:41:16;;;;;;;14.85;8.77;;;29.50;97.70;;;;;;5071404;28;20522;-74
2022/06/25 06:43:42;;;;;;;17.73;8.90;;;29.20;96.70;;;;;;5071146;28;20013;-75
2022/06/25 06:46:08;;;;;;;14.75;8.68;;;29.00;96.20;;;;;;5071043;28;20436;-75
2022/06/25 06:48:34;;;;;;;13.85;8.32;;;28.80;97.40;;;;;;5070741;28;20104;-76
2022/06/25 06:51:03;;;;;;;14.05;8.52;;;28.50;99.60;;;;;;5070891;28;20052;-77
2022/06/25 06:53:29;;;;;;;17.35;8.60;;;28.50;99.90;;;;;;5071310;28;20470;-78
2022/06/25 06:55:55;;;;;;;20.92;10.15;;;28.40;98.90;;;;;;5071058;28;20089;-78
2022/06/25 06:58:20;;;;;;;18.50;10.43;;;28.50;99.90;;;;;;5071223;28;20547;-71
2022/06/25 07:00:46;;;;;;;16.77;10.18;;;28.80;99.90;;;;;;5069447;28;20049;-80
2022/06/25 07:03:12;;;;;;;16.63;8.68;;;29.00;97.50;;;;;;5068752;28;20382;-70
2022/06/25 07:05:38;;;;;;;16.25;8.02;;;29.20;99.90;;;;;;5070429;28;20115;-69
2022/06/25 07:08:09;;;;;;;17.20;8.80;;;29.00;96.80;;;;;;5070961;28;20066;-77
2022/06/25 07:10:35;;;;;;;18.80;9.13;;;29.40;99.90;;;;;;5071349;28;20017;-78
2022/06/25 07:13:01;;;;;;;16.00;8.05;;;29.20;99.90;;;;;;5071017;28;20100;-74
2022/06/25 07:15:27;;;;;;;18.80;9.60;;;29.40;97.00;;;;;;5071123;28;20037;-73
2022/06/25 07:17:52;;;;;;;12.25;8.27;;;29.50;99.00;;;;;;5070496;28;20374;-81
2022/06/25 07:20:18;;;;;;;14.77;8.48;;;29.70;99.20;;;;;;5077590;28;20036;-82
2022/06/25 07:22:44;;;;;;;14.77;7.50;;;29.50;99.00;;;;;;5059248;28;20036;-75
2022/06/25 07:25:10;;;;;;;18.20;8.38;;;29.80;95.90;;;;;;5067382;28;20033;-78
2022/06/25 07:27:36;;;;;;;13.23;7.90;;;30.00;94.90;;;;;;5072889;28;20032;-80
2022/06/25 07:30:02;;;;;;;13.93;7.40;;;29.90;95.90;;;;;;5070004;28;20027;-81
2022/06/25 07:32:28;;;;;;;15.65;8.38;;;30.10;95.40;;;;;;5072980;28;20027;-73
2022/06/25 07:34:54;;;;;;;18.88;8.35;;;30.30;97.00;;;;;;5074368;28;20040;-76
2022/06/25 07:37:20;;;;;;;19.35;7.80;;;30.30;94.90;;;;;;5079410;28;20043;-78
2022/06/25 07:39:45;;;;;;;15.18;7.88;;;30.00;94.70;;;;;;5075286;28;20096;-79
2022/06/25 07:42:11;;;;;;;16.35;8.57;;;30.30;95.10;;;;;;5073577;28;20120;-75
2022/06/25 07:44:37;;;;;;;13.65;6.57;;;30.50;98.10;;;;;;5072188;28;20036;-80
2022/06/25 07:47:03;;;;;;;14.18;7.35;;;30.30;93.80;;;;;;5071091;28;20047;-80
2022/06/25 07:49:29;;;;;;;25.27;9.23;;;30.60;93.00;;;;;;5072434;28;20048;-80
2022/06/25 07:51:59;;;;;;;11.63;7.05;;;30.40;92.30;;;;;;5073591;28;20056;-80
2022/06/25 07:54:29;;;;;;;12.30;7.30;;;30.70;94.60;;;;;;5073503;28;20028;-82
2022/06/25 07:56:56;;;;;;;14.65;7.65;;;30.70;94.40;;;;;;5070178;28;20025;-76
2022/06/25 07:59:23;;;;;;;14.23;7.80;;;31.10;94.20;;;;;;5070445;28;20467;-81
2022/06/25 08:01:49;;;;;;;10.60;6.68;;;31.00;90.10;;;;;;5070090;28;20144;-78
2022/06/25 08:04:15;;;;;;;10.30;7.07;;;31.20;92.80;;;;;;5071131;28;20031;-81
2022/06/25 08:06:44;;;;;;;13.07;7.35;;;31.30;90.30;;;;;;5070774;28;20081;-81
2022/06/25 08:09:10;;;;;;;18.17;7.75;;;31.20;89.40;;;;;;5070809;28;20017;-80
2022/06/25 08:11:36;;;;;;;13.27;6.90;;;31.30;91.50;;;;;;5071118;28;20390;-81
2022/06/25 08:14:03;;;;;;;11.95;7.20;;;31.00;90.40;;;;;;5071187;28;20025;-80
2022/06/25 08:16:29;;;;;;;16.38;7.63;;;31.30;91.40;;;;;;5070146;28;20029;-81
2022/06/25 08:18:55;;;;;;;18.15;6.95;;;31.00;90.20;;;;;;5072226;28;20016;-82
2022/06/25 08:21:21;;;;;;;21.23;6.95;;;31.40;90.90;;;;;;5073698;28;20143;-83
2022/06/25 08:23:47;;;;;;;11.50;6.68;;;31.90;92.00;;;;;;5073948;28;20135;-82
2022/06/25 08:26:15;;;;;;;11.82;7.40;;;31.90;90.60;;;;;;5062947;28;20033;-76
2022/06/25 08:28:42;;;;;;;10.85;7.05;;;31.70;90.80;;;;;;5072628;28;20471;-76
2022/06/25 08:31:07;;;;;;;12.55;7.22;;;32.00;91.00;;;;;;5074023;28;20467;-81
2022/06/25 08:33:33;;;;;;;20.30;7.28;;;31.70;90.50;;;;;;5070452;28;20020;-82
2022/06/25 08:35:59;;;;;;;15.25;8.07;;;31.70;91.60;;;;;;5056115;28;20028;-82
2022/06/25 08:38:25;;;;;;;11.57;7.22;;;31.80;90.50;;;;;;5074714;28;20355;-82
2022/06/25 08:40:59;;;;;;;15.90;6.88;;;32.10;89.10;;;;;;5073741;28;20535;-82
2022/06/25 08:43:25;;;;;;;11.15;7.10;;;31.80;86.70;;;;;;5073287;28;20048;-73
2022/06/25 08:45:51;;;;;;;14.75;7.40;;;31.50;86.90;;;;;;5074219;28;20113;-83
2022/06/25 08:48:31;;;;;;;12.57;7.20;;;31.40;92.30;;;;;;5074012;28;20021;-80
2022/06/25 08:50:59;;;;;;;12.25;6.75;;;31.50;90.40;;;;;;5074012;28;20036;-84
2022/06/25 08:53:30;;;;;;;15.07;6.80;;;31.60;91.10;;;;;;5074799;28;20133;-83
2022/06/25 08:55:56;;;;;;;15.70;6.78;;;31.90;83.20;;;;;;5074273;28;20033;-81
2022/06/25 08:58:22;;;;;;;15.05;6.68;;;32.40;83.10;;;;;;5074202;28;20029;-82
2022/06/25 09:00:48;;;;;;;11.65;6.70;;;32.70;84.00;;;;;;5073599;28;20047;-82
2022/06/25 09:03:14;;;;;;;12.32;6.85;;;32.50;85.50;;;;;;5072962;28;20031;-82
2022/06/25 09:05:42;;;;;;;15.90;6.15;;;32.70;85.60;;;;;;5073833;28;20420;-82
2022/06/25 09:08:11;;;;;;;13.80;6.95;;;32.50;83.70;;;;;;5074036;28;20097;-84
2022/06/25 09:10:39;;;;;;;10.68;5.85;;;32.70;82.30;;;;;;5073976;28;20032;-83
2022/06/25 09:13:09;;;;;;;13.05;5.72;;;33.20;82.80;;;;;;5073345;28;20048;-82
2022/06/25 09:15:40;;;;;;;12.07;6.43;;;33.10;81.80;;;;;;5074681;28;20032;-82
2022/06/25 09:18:14;;;;;;;8.77;5.07;;;32.70;81.20;;;;;;5073659;28;20052;-77
2022/06/25 09:20:59;;;;;;;12.23;6.30;;;32.90;79.20;;;;;;5075637;28;20385;-79
2022/06/25 09:23:26;;;;;;;13.50;6.20;;;32.70;79.80;;;;;;5075209;28;20028;-82
2022/06/25 09:26:10;;;;;;;13.15;5.85;;;32.70;80.10;;;;;;5075607;28;20104;-73
2022/06/25 09:28:42;;;;;;;13.70;6.50;;;32.50;77.30;;;;;;5073457;28;20020;-84
2022/06/25 09:31:08;;;;;;;11.93;5.68;;;32.70;74.80;;;;;;5072392;28;20404;-76
2022/06/25 09:33:38;;;;;;;13.65;5.25;;;32.50;75.90;;;;;;5075827;28;20025;-83
2022/06/25 09:36:06;;;;;;;12.82;4.63;;;32.40;72.90;;;;;;5057089;28;20051;-81
2022/06/25 09:38:32;;;;;;;11.88;5.80;;;32.10;73.20;;;;;;5066320;28;20162;-82
2022/06/25 09:41:00;;;;;;;10.40;6.10;;;32.10;76.50;;;;;;5073456;28;20115;-84
2022/06/25 09:43:28;;;;;;;15.02;6.40;;;32.10;80.10;;;;;;5073604;28;20528;-83
2022/06/25 09:45:56;;;;;;;8.48;4.05;;;32.50;79.70;;;;;;5075578;28;20032;-80
2022/06/25 09:48:23;;;;;;;12.20;3.90;;;32.70;73.60;;;;;;5075220;28;20060;-65
2022/06/25 09:51:10;;;;;;;13.95;4.57;;;32.10;69.10;;;;;;5069464;28;20041;-83
2022/06/25 09:53:45;;;;;;;16.17;5.55;;;32.20;71.80;;;;;;5073159;28;20095;-84
2022/06/25 09:56:17;;;;;;;14.98;5.97;;;32.10;72.20;;;;;;5069491;28;20051;-82
2022/06/25 09:58:44;;;;;;;13.25;5.13;;;31.60;72.10;;;;;;5071550;28;20012;-78
2022/06/25 10:01:15;;;;;;;9.13;4.60;;;31.80;71.50;;;;;;5071677;28;20044;-85
2022/06/25 10:03:42;;;;;;;9.75;4.75;;;31.70;73.50;;;;;;5072056;28;20127;-77
2022/06/25 10:06:09;;;;;;;10.27;4.53;;;32.10;72.60;;;;;;5071152;28;20083;-80
2022/06/25 10:08:35;;;;;;;10.25;4.82;;;32.10;71.00;;;;;;5072063;28;20071;-82
2022/06/25 10:11:05;;;;;;;8.85;4.30;;;32.30;71.00;;;;;;5072237;28;20465;-83
2022/06/25 10:13:31;;;;;;;10.98;3.88;;;32.10;67.20;;;;;;5072794;28;20036;-84
2022/06/25 10:15:57;;;;;;;11.70;4.20;;;32.20;67.10;;;;;;5072180;28;20451;-81
2022/06/25 10:18:25;;;;;;;20.13;5.28;;;32.20;65.30;;;;;;5071795;28;20073;-85
2022/06/25 10:20:51;;;;;;;10.18;4.78;;;32.10;68.70;;;;;;5070463;28;20094;-83
2022/06/25 10:23:20;;;;;;;9.38;4.15;;;32.20;69.70;;;;;;5070761;28;20033;-84
2022/06/25 10:25:46;;;;;;;8.75;4.97;;;32.10;69.70;;;;;;5066816;28;20032;-81
2022/06/25 10:28:14;;;;;;;14.70;3.78;;;32.10;72.40;;;;;;5071075;28;20052;-82
2022/06/25 10:30:49;;;;;;;12.40;5.35;;;31.80;72.80;;;;;;5070871;28;20020;-81
2022/06/25 10:33:26;;;;;;;12.65;4.45;;;31.70;72.70;;;;;;5069388;28;20478;-85
2022/06/25 10:35:55;;;;;;;15.65;4.63;;;31.60;70.50;;;;;;5071219;28;20024;-85
2022/06/25 10:38:24;;;;;;;8.75;3.90;;;31.80;72.20;;;;;;5071182;28;20032;-69
2022/06/25 10:43:50;;;;;;;9.70;4.40;;;31.80;69.80;;;;;;5073465;28;20016;-79
2022/06/25 10:46:33;;;;;;;10.18;4.93;;;32.00;71.40;;;;;;5070393;28;20036;-79
2022/06/25 10:49:11;;;;;;;11.98;4.55;;;31.70;73.30;;;;;;5068754;28;20027;-79
2022/06/25 10:51:48;;;;;;;9.93;4.40;;;31.50;74.00;;;;;;5076324;28;20051;-78
2022/06/25 10:54:35;;;;;;;14.52;5.97;;;31.40;77.70;;;;;;5074182;28;20033;-78
2022/06/25 10:57:02;;;;;;;8.90;5.13;;;31.40;77.10;;;;;;5070930;28;20035;-77
2022/06/25 10:59:46;;;;;;;7.63;4.72;;;31.30;77.50;;;;;;5070958;28;20399;-68
2022/06/25 11:02:15;;;;;;;9.10;4.95;;;31.90;79.50;;;;;;5072869;28;20401;-82
2022/06/25 11:04:53;;;;;;;17.05;5.57;;;31.70;76.20;;;;;;5071830;28;20024;-80
2022/06/25 11:07:24;;;;;;;7.75;4.15;;;31.90;76.80;;;;;;5070343;28;20029;-78
2022/06/25 11:10:02;;;;;;;15.50;5.25;;;31.90;74.10;;;;;;5072288;28;20044;-83
2022/06/25 11:12:34;;;;;;;12.40;4.47;;;32.20;76.40;;;;;;5071483;28;20406;-81
2022/06/25 11:15:02;;;;;;;12.10;4.10;;;32.10;72.50;;;;;;5075154;28;20082;-80
2022/06/25 11:17:28;;;;;;;14.43;4.10;;;32.10;71.80;;;;;;5071662;28;20024;-82
2022/06/25 11:20:00;;;;;;;11.25;3.95;;;31.80;69.20;;;;;;5071422;28;20025;-82
2022/06/25 11:22:26;;;;;;;10.93;4.85;;;31.80;70.80;;;;;;5071012;28;20045;-81
2022/06/25 11:30:23;;;;;;;14.35;4.85;;;31.10;76.40;;;;;;5073501;28;20033;-83
2022/06/25 11:32:51;;;;;;;15.13;6.38;;;30.90;78.90;;;;;;5070811;28;20028;-81
2022/06/25 11:35:17;;;;;;;11.38;4.68;;;31.10;80.30;;;;;;5072562;28;20036;-83
2022/06/25 11:37:43;;;;;;;11.95;4.95;;;30.80;80.30;;;;;;5071404;28;20028;-80
2022/06/25 11:40:15;;;;;;;10.32;5.07;;;30.90;81.30;;;;;;5078385;28;20028;-75
2022/06/25 11:42:47;;;;;;;15.88;4.63;;;30.90;81.50;;;;;;5070014;28;20113;-82
2022/06/25 11:45:13;;;;;;;10.07;4.88;;;31.10;84.30;;;;;;5068125;28;20533;-81
2022/06/25 11:47:38;;;;;;;19.73;5.53;;;31.10;84.40;;;;;;5072130;28;20111;-80
2022/06/25 11:50:10;;;;;;;10.63;4.85;;;30.90;83.10;;;;;;5068933;28;20076;-82
2022/06/25 11:52:43;;;;;;;9.27;5.22;;;30.50;83.40;;;;;;5073613;28;20033;-79
2022/06/25 11:55:10;;;;;;;9.25;4.93;;;30.30;86.70;;;;;;5076260;28;20090;-81
2022/06/25 11:57:42;;;;;;;11.80;4.75;;;30.30;89.40;;;;;;5076195;28;20017;-83
2022/06/25 12:00:13;;;;;;;10.35;5.07;;;30.30;89.20;;;;;;5074202;28;20039;-77
2022/06/25 12:02:43;;;;;;;10.40;4.53;;;30.20;89.60;;;;;;5072539;28;20031;-79
2022/06/25 12:05:10;;;;;;;12.93;5.03;;;30.10;87.90;;;;;;5072993;28;20031;-79
2022/06/25 12:07:37;;;;;;;12.43;4.93;;;30.20;89.00;;;;;;5074625;28;20029;-80
2022/06/25 12:10:08;;;;;;;13.13;5.50;;;30.20;89.60;;;;;;5072699;28;20103;-68
2022/06/25 12:12:36;;;;;;;17.33;6.28;;;30.30;90.60;;;;;;5073939;28;20028;-65
2022/06/25 12:15:03;;;;;;;24.92;4.63;;;30.50;90.50;;;;;;5073006;28;20052;-84
2022/06/25 12:17:37;;;;;;;15.48;4.95;;;30.50;89.90;;;;;;5074170;28;20023;-73
2022/06/25 12:20:11;;;;;;;11.00;4.57;;;30.40;90.80;;;;;;5073451;28;20024;-68
2022/06/25 12:22:43;;;;;;;10.10;4.13;;;30.30;86.80;;;;;;5070917;28;20025;-63
2022/06/25 12:25:10;;;;;;;9.38;4.88;;;30.10;90.50;;;;;;5070411;28;20028;-80
2022/06/25 12:27:49;;;;;;;13.68;4.47;;;30.00;91.40;;;;;;5075762;28;20027;-73
2022/06/25 12:30:22;;;;;;;13.05;4.88;;;30.00;93.30;;;;;;5069201;28;20639;-74
2022/06/25 12:32:48;;;;;;;18.63;6.15;;;29.90;91.10;;;;;;5073703;28;20028;-68
2022/06/25 12:35:19;;;;;;;12.05;5.20;;;30.00;92.10;;;;;;5073848;28;20024;-81
2022/06/25 12:38:08;;;;;;;11.57;5.07;;;30.00;92.00;;;;;;5073448;28;20494;-82
2022/06/25 12:40:39;;;;;;;8.93;5.03;;;30.30;91.50;;;;;;5074309;28;20465;-80
2022/06/25 12:43:06;;;;;;;10.75;4.15;;;30.50;90.90;;;;;;5074275;28;20078;-82
2022/06/25 12:45:37;;;;;;;11.13;4.43;;;30.80;84.70;;;;;;5089606;28;20070;-82
2022/06/25 12:48:04;;;;;;;11.65;4.90;;;31.10;84.80;;;;;;5073890;28;20475;-82
2022/06/25 12:50:32;;;;;;;10.30;4.40;;;31.10;81.70;;;;;;5074322;28;20045;-80
2022/06/25 12:53:12;;;;;;;16.38;4.47;;;31.30;82.10;;;;;;5073294;28;20624;-76
2022/06/25 12:55:39;;;;;;;10.38;4.35;;;31.50;77.80;;;;;;5073075;28;20470;-77
2022/06/25 12:58:12;;;;;;;12.10;4.57;;;31.70;77.80;;;;;;5071658;28;20037;-84